This is the latest recevied weather packets stored in our database for station/object SP4LIN-15. If no packets are shown the sender has not sent any weather packets the latest 10 day(s).
| Time | Temp. | Humidity | Pressure | Rain* | Wind** | Luminosity | Snow |
|---|---|---|---|---|---|---|---|
| 1777703380 | 23.89° C | 38% | 1015.6 hPa | 0 mm | - | - | - |
| 1777702414 | 20.56° C | 42% | 1015.7 hPa | 0 mm | - | - | - |
| 1777701514 | 20° C | 45% | 1015.8 hPa | 0 mm | - | - | - |
| 1777700614 | 18.89° C | 49% | 1015.7 hPa | 0 mm | - | - | - |
| 1777699714 | 15° C | 60% | 1015.9 hPa | 0 mm | - | - | - |
| 1777698814 | 12.22° C | 65% | 1015.8 hPa | 0 mm | - | - | - |
| 1777697914 | 11.67° C | 65% | 1015.9 hPa | 0 mm | - | - | - |
| 1777697014 | 15° C | 65% | 1015.9 hPa | 0 mm | - | - | - |
| 1777696114 | 8.89° C | 83% | 1015.8 hPa | 0 mm | - | - | - |
| 1777695214 | 5° C | 86% | 1015.9 hPa | 0 mm | - | - | - |
| 1777694314 | 4.44° C | 86% | 1015.8 hPa | 0 mm | - | - | - |
| 1777693414 | 4.44° C | 85% | 1015.7 hPa | 0 mm | - | - | - |
| 1777692514 | 3.89° C | 85% | 1015.8 hPa | 0 mm | - | - | - |
| 1777691614 | 3.89° C | 85% | 1015.8 hPa | 0 mm | - | - | - |
| 1777690714 | 3.89° C | 84% | 1015.8 hPa | 0 mm | - | - | - |
| 1777689814 | 3.89° C | 84% | 1015.9 hPa | 0 mm | - | - | - |
| 1777688914 | 3.89° C | 84% | 1015.9 hPa | 0 mm | - | - | - |
| 1777688014 | 3.89° C | 83% | 1016 hPa | 0 mm | - | - | - |
| 1777687114 | 4.44° C | 83% | 1016.1 hPa | 0 mm | - | - | - |
| 1777686214 | 4.44° C | 83% | 1016.1 hPa | 0 mm | - | - | - |
| 1777685314 | 4.44° C | 83% | 1016.1 hPa | 0 mm | - | - | - |
| 1777684415 | 4.44° C | 83% | 1016 hPa | 0 mm | - | - | - |
| 1777683515 | 4.44° C | 82% | 1016.4 hPa | 0 mm | - | - | - |
| 1777682615 | 4.44° C | 81% | 1016.3 hPa | 0 mm | - | - | - |
| 1777681715 | 4.44° C | 80% | 1016.2 hPa | 0 mm | - | - | - |
* Rain latest hour (hover to see other rain measurements)
** Current wind speed in m/s (hover to see current wind gust speed)